In Rescue
 
Open Full Screen Window  High Contrast Mode
Wind Gusting 00 knots
07
February 23, 2019 11:50 PM EST
Weather Information
Wind Direction
  120 °
Wind Speed
  07 kt (8 mph)
Wind Gust
  00 kt (0 mph)
Altimeter
29.73 in
Visibility
10 SM
Temperature
05° C
41° F
Dewpoint
03° C
37° F
Humidity
87%
1hr Rain Fall
00.00 in.
24hr Rain Fall
00.01 in.
Sky Condition
Overcast @ 1,900 ft
MVFR

METAR KPOV 240450Z AUTO 12007KT 10SM OVC019 05/03 A2973 RMK AO2 T00500032 PWINO

FAA Disclaimer: The data displayed is for advisory purposes only and is not to be used for flight planning or operations.